Shoukeimaruno.3 — JI3587 — position and weather

sailwx.info

Track history (hours):
 
Tides and Currents Weather Stations Pressure Air Temp Water Temp Dewpoint Dewpoint Depression Visibility Wind Speed Wind Dir Waves Ship Positions

Shoukeimaruno.3

Last reported at 2016-Jul-27 10:34 UTC. Time now 2016-Jul-27 11:33 UTC.
Position N 35°29' E 139°57'.

Length 77 m; draft 3.8 m.

Type: Cargo ship. MMSI: 431300325.

Date/timePositionNaut miles runAvg speedWind from/ knotsBaromVisibWave heightAir tempDewpointWater temp
2016-Jul-27 10:34N 35°29' E 139°57'0 0.0
2016-Jul-27 09:33N 35°29' E 139°57'0 0.0
2016-Jul-27 08:34N 35°29' E 139°57'0 0.0
2016-Jul-27 07:33N 35°29' E 139°57'0 0.0
2016-Jul-27 06:34N 35°29' E 139°57'0 0.0
2016-Jul-27 05:34N 35°29' E 139°57'1 1.1
2016-Jul-27 04:33N 35°29' E 139°55'1111.0
2016-Jul-27 03:34N 35°22' E 139°45'1110.8
2016-Jul-27 02:33N 35°11' E 139°47'1211.8
2016-Jul-27 01:33N 34°60' E 139°44'13 9.0
2016-Jul-27 00:07N 34°53' E 139°57'611.1
2016-Jul-26 23:33N 34°57' E 140°03'2611.3
2016-Jul-26 21:14N 35°13' E 140°29'811.2
2016-Jul-26 20:33N 35°19' E 140°34'1111.1
2016-Jul-26 19:33N 35°27' E 140°43'1311.3
2016-Jul-26 18:25N 35°37' E 140°53'  
2016-Jul-23 13:28N 35°39' E 140°52'1010.2
2016-Jul-23 12:31N 35°32' E 140°44'2010.3
2016-Jul-23 10:33N 35°15' E 140°30'2010.0
2016-Jul-23 08:33N 35°02' E 140°12'1010.3
2016-Jul-23 07:33N 34°56' E 140°02'1210.4
2016-Jul-23 06:26N 34°53' E 139°48'2211.7
2016-Jul-23 04:32N 35°15' E 139°46'1111.2
2016-Jul-23 03:34N 35°24' E 139°38'0 0.4
2016-Jul-23 02:33N 35°24' E 139°37'0 0.0
2016-Jul-23 01:33N 35°24' E 139°37'0 0.0
2016-Jul-23 00:33N 35°24' E 139°37'0 0.0
2016-Jul-22 23:33N 35°24' E 139°37'2 2.0
2016-Jul-22 22:33N 35°23' E 139°40'0 0.0
2016-Jul-22 21:33N 35°23' E 139°40'0 0.0
2016-Jul-22 20:33N 35°23' E 139°40'0 0.0
2016-Jul-22 19:33N 35°23' E 139°40'0 0.0
2016-Jul-22 18:33N 35°23' E 139°40'0 0.0
2016-Jul-22 17:33N 35°23' E 139°40'0 0.0
2016-Jul-22 16:33N 35°23' E 139°40'0 0.0
2016-Jul-22 15:33N 35°23' E 139°40'0 0.0
2016-Jul-22 14:33N 35°23' E 139°40'5 5.3
2016-Jul-22 13:33N 35°19' E 139°43'1110.5
2016-Jul-22 12:33N 35°09' E 139°46'1312.0
2016-Jul-22 11:29N 34°56' E 139°44'1110.9
2016-Jul-22 10:26N 34°53' E 139°57'1212.8
2016-Jul-22 09:32N 34°60' E 140°09'2412.1
2016-Jul-22 07:33N 35°16' E 140°31'1312.6
2016-Jul-22 06:32N 35°26' E 140°40'3210.6
2016-Jul-22 03:32N 35°58' E 140°44'5 4.7
2016-Jul-22 02:24N 35°53' E 140°41'0 0.0
2016-Jul-22 01:33N 35°53' E 140°41'0 0.0
2016-Jul-22 00:33N 35°53' E 140°41'0 0.0
2016-Jul-21 23:33N 35°53' E 140°41'0 0.0
2016-Jul-21 22:33N 35°53' E 140°41'0 0.0
2016-Jul-21 21:32N 35°53' E 140°41'0 0.0
2016-Jul-21 20:33N 35°53' E 140°41'0 0.0
2016-Jul-21 19:33N 35°53' E 140°41'0 0.0
2016-Jul-21 18:33N 35°53' E 140°41'0 0.0
2016-Jul-21 17:33N 35°53' E 140°41'0 0.0
2016-Jul-21 16:33N 35°53' E 140°41'0 0.0
2016-Jul-21 15:33N 35°53' E 140°41'0 0.0
2016-Jul-21 14:33N 35°53' E 140°41'0 0.0
2016-Jul-21 13:33N 35°53' E 140°41'0 0.0
2016-Jul-21 12:33N 35°53' E 140°41'0 0.0
2016-Jul-21 11:33N 35°53' E 140°41'0 0.0
2016-Jul-21 10:33N 35°53' E 140°41'0 0.0
2016-Jul-21 09:33N 35°53' E 140°41'0 0.0
2016-Jul-21 08:32N 35°53' E 140°41'0 0.0
2016-Jul-21 07:33N 35°53' E 140°41'0 0.0
2016-Jul-21 06:33N 35°53' E 140°41'0 0.0
2016-Jul-21 05:33N 35°53' E 140°41'0 0.0
2016-Jul-21 04:33N 35°53' E 140°41'0 0.0
2016-Jul-21 03:33N 35°53' E 140°41'0 0.0
2016-Jul-21 02:33N 35°53' E 140°41'0 0.0
2016-Jul-21 01:32N 35°53' E 140°41'0 0.3
2016-Jul-21 00:32N 35°53' E 140°41'15 7.2
2016-Jul-20 22:22N 35°43' E 140°54'911.3
2016-Jul-20 21:32N 35°34' E 140°48'1412.4
2016-Jul-20 20:22N 35°23' E 140°38'1012.0
2016-Jul-20 19:33N 35°15' E 140°30'1612.0
2016-Jul-20 18:14N 35°03' E 140°18'812.1
2016-Jul-20 17:33N 34°58' E 140°09'2311.4
2016-Jul-20 15:33N 34°52' E 139°43'11 0.3
2016-Jul-19 04:29N 34°52' E 139°57'1412.8
2016-Jul-19 03:21N 35°00' E 140°11'2111.8
2016-Jul-19 01:33N 35°15' E 140°31'1411.3
2016-Jul-19 00:21N 35°25' E 140°41'2211.8
2016-Jul-18 22:28N 35°44' E 140°56'1612.6
2016-Jul-18 21:12N 35°59' E 141°00'812.6
2016-Jul-18 20:33N 36°07' E 141°03'1312.8
2016-Jul-18 19:33N 36°20' E 141°06'  
Track history (hours):
 
Tides and Currents Weather Stations Pressure Air Temp Water Temp Dewpoint Dewpoint Depression Visibility Wind Speed Wind Dir Waves Ship Positions

Shoukeimaruno.3

Last reported at 2016-Jul-27 10:34 UTC. Time now 2016-Jul-27 11:33 UTC.
Position N 35°29' E 139°57'.

Length 77 m; draft 3.8 m.

Type: Cargo ship. MMSI: 431300325.

Date/timePositionNaut miles runAvg speedWind from/ knotsBaromVisibWave heightAir tempDewpointWater temp
2016-Jul-27 10:34N 35°29' E 139°57'0 0.0
2016-Jul-27 09:33N 35°29' E 139°57'0 0.0
2016-Jul-27 08:34N 35°29' E 139°57'0 0.0
2016-Jul-27 07:33N 35°29' E 139°57'0 0.0
2016-Jul-27 06:34N 35°29' E 139°57'0 0.0
2016-Jul-27 05:34N 35°29' E 139°57'1 1.1
2016-Jul-27 04:33N 35°29' E 139°55'1111.0
2016-Jul-27 03:34N 35°22' E 139°45'1110.8
2016-Jul-27 02:33N 35°11' E 139°47'1211.8
2016-Jul-27 01:33N 34°60' E 139°44'13 9.0
2016-Jul-27 00:07N 34°53' E 139°57'611.1
2016-Jul-26 23:33N 34°57' E 140°03'2611.3
2016-Jul-26 21:14N 35°13' E 140°29'811.2
2016-Jul-26 20:33N 35°19' E 140°34'1111.1
2016-Jul-26 19:33N 35°27' E 140°43'1311.3
2016-Jul-26 18:25N 35°37' E 140°53'  
2016-Jul-23 13:28N 35°39' E 140°52'1010.2
2016-Jul-23 12:31N 35°32' E 140°44'2010.3
2016-Jul-23 10:33N 35°15' E 140°30'2010.0
2016-Jul-23 08:33N 35°02' E 140°12'1010.3
2016-Jul-23 07:33N 34°56' E 140°02'1210.4
2016-Jul-23 06:26N 34°53' E 139°48'2211.7
2016-Jul-23 04:32N 35°15' E 139°46'1111.2
2016-Jul-23 03:34N 35°24' E 139°38'0 0.4
2016-Jul-23 02:33N 35°24' E 139°37'0 0.0
2016-Jul-23 01:33N 35°24' E 139°37'0 0.0
2016-Jul-23 00:33N 35°24' E 139°37'0 0.0
2016-Jul-22 23:33N 35°24' E 139°37'2 2.0
2016-Jul-22 22:33N 35°23' E 139°40'0 0.0
2016-Jul-22 21:33N 35°23' E 139°40'0 0.0
2016-Jul-22 20:33N 35°23' E 139°40'0 0.0
2016-Jul-22 19:33N 35°23' E 139°40'0 0.0
2016-Jul-22 18:33N 35°23' E 139°40'0 0.0
2016-Jul-22 17:33N 35°23' E 139°40'0 0.0
2016-Jul-22 16:33N 35°23' E 139°40'0 0.0
2016-Jul-22 15:33N 35°23' E 139°40'0 0.0
2016-Jul-22 14:33N 35°23' E 139°40'5 5.3
2016-Jul-22 13:33N 35°19' E 139°43'1110.5
2016-Jul-22 12:33N 35°09' E 139°46'1312.0
2016-Jul-22 11:29N 34°56' E 139°44'1110.9
2016-Jul-22 10:26N 34°53' E 139°57'1212.8
2016-Jul-22 09:32N 34°60' E 140°09'2412.1
2016-Jul-22 07:33N 35°16' E 140°31'1312.6
2016-Jul-22 06:32N 35°26' E 140°40'3210.6
2016-Jul-22 03:32N 35°58' E 140°44'5 4.7
2016-Jul-22 02:24N 35°53' E 140°41'0 0.0
2016-Jul-22 01:33N 35°53' E 140°41'0 0.0
2016-Jul-22 00:33N 35°53' E 140°41'0 0.0
2016-Jul-21 23:33N 35°53' E 140°41'0 0.0
2016-Jul-21 22:33N 35°53' E 140°41'0 0.0
2016-Jul-21 21:32N 35°53' E 140°41'0 0.0
2016-Jul-21 20:33N 35°53' E 140°41'0 0.0
2016-Jul-21 19:33N 35°53' E 140°41'0 0.0
2016-Jul-21 18:33N 35°53' E 140°41'0 0.0
2016-Jul-21 17:33N 35°53' E 140°41'0 0.0
2016-Jul-21 16:33N 35°53' E 140°41'0 0.0
2016-Jul-21 15:33N 35°53' E 140°41'0 0.0
2016-Jul-21 14:33N 35°53' E 140°41'0 0.0
2016-Jul-21 13:33N 35°53' E 140°41'0 0.0
2016-Jul-21 12:33N 35°53' E 140°41'0 0.0
2016-Jul-21 11:33N 35°53' E 140°41'0 0.0
2016-Jul-21 10:33N 35°53' E 140°41'0 0.0
2016-Jul-21 09:33N 35°53' E 140°41'0 0.0
2016-Jul-21 08:32N 35°53' E 140°41'0 0.0
2016-Jul-21 07:33N 35°53' E 140°41'0 0.0
2016-Jul-21 06:33N 35°53' E 140°41'0 0.0
2016-Jul-21 05:33N 35°53' E 140°41'0 0.0
2016-Jul-21 04:33N 35°53' E 140°41'0 0.0
2016-Jul-21 03:33N 35°53' E 140°41'0 0.0
2016-Jul-21 02:33N 35°53' E 140°41'0 0.0
2016-Jul-21 01:32N 35°53' E 140°41'0 0.3
2016-Jul-21 00:32N 35°53' E 140°41'15 7.2
2016-Jul-20 22:22N 35°43' E 140°54'911.3
2016-Jul-20 21:32N 35°34' E 140°48'1412.4
2016-Jul-20 20:22N 35°23' E 140°38'1012.0
2016-Jul-20 19:33N 35°15' E 140°30'1612.0
2016-Jul-20 18:14N 35°03' E 140°18'812.1
2016-Jul-20 17:33N 34°58' E 140°09'2311.4
2016-Jul-20 15:33N 34°52' E 139°43'11 0.3
2016-Jul-19 04:29N 34°52' E 139°57'1412.8
2016-Jul-19 03:21N 35°00' E 140°11'2111.8
2016-Jul-19 01:33N 35°15' E 140°31'1411.3
2016-Jul-19 00:21N 35°25' E 140°41'2211.8
2016-Jul-18 22:28N 35°44' E 140°56'1612.6
2016-Jul-18 21:12N 35°59' E 141°00'812.6
2016-Jul-18 20:33N 36°07' E 141°03'1312.8
2016-Jul-18 19:33N 36°20' E 141°06'  

Dump ship's entire track history